sensor_id;sensor_type;location;lat;lon;timestamp;P1;durP1;ratioP1;P2;durP2;ratioP2
34134;SDS011;20410;55.578;12.968;2022-11-15T00:01:48;44.87;;;32.00;;
34134;SDS011;20410;55.578;12.968;2022-11-15T00:04:13;48.33;;;31.97;;
34134;SDS011;20410;55.578;12.968;2022-11-15T00:06:39;43.63;;;31.73;;
34134;SDS011;20410;55.578;12.968;2022-11-15T00:09:04;47.13;;;32.70;;
34134;SDS011;20410;55.578;12.968;2022-11-15T00:11:30;46.03;;;32.33;;
34134;SDS011;20410;55.578;12.968;2022-11-15T00:13:56;45.60;;;32.47;;
34134;SDS011;20410;55.578;12.968;2022-11-15T00:16:22;45.27;;;31.90;;
34134;SDS011;20410;55.578;12.968;2022-11-15T00:18:48;48.33;;;32.53;;
34134;SDS011;20410;55.578;12.968;2022-11-15T00:21:14;42.43;;;31.33;;
34134;SDS011;20410;55.578;12.968;2022-11-15T00:23:40;44.70;;;30.53;;
34134;SDS011;20410;55.578;12.968;2022-11-15T00:26:06;47.43;;;31.93;;
34134;SDS011;20410;55.578;12.968;2022-11-15T00:28:32;47.10;;;32.63;;
34134;SDS011;20410;55.578;12.968;2022-11-15T00:31:01;45.80;;;31.27;;
34134;SDS011;20410;55.578;12.968;2022-11-15T00:33:28;43.27;;;31.03;;
34134;SDS011;20410;55.578;12.968;2022-11-15T00:35:58;42.33;;;31.07;;
34134;SDS011;20410;55.578;12.968;2022-11-15T00:38:25;46.80;;;32.00;;
34134;SDS011;20410;55.578;12.968;2022-11-15T00:40:54;44.90;;;31.03;;
34134;SDS011;20410;55.578;12.968;2022-11-15T00:43:20;46.07;;;32.90;;
34134;SDS011;20410;55.578;12.968;2022-11-15T00:45:45;48.07;;;32.40;;
34134;SDS011;20410;55.578;12.968;2022-11-15T00:48:11;44.90;;;31.67;;
34134;SDS011;20410;55.578;12.968;2022-11-15T00:50:36;44.60;;;30.23;;
34134;SDS011;20410;55.578;12.968;2022-11-15T00:53:02;44.67;;;30.80;;
34134;SDS011;20410;55.578;12.968;2022-11-15T00:55:27;43.47;;;30.73;;
34134;SDS011;20410;55.578;12.968;2022-11-15T00:57:53;44.37;;;31.97;;
34134;SDS011;20410;55.578;12.968;2022-11-15T01:00:19;43.53;;;31.13;;
34134;SDS011;20410;55.578;12.968;2022-11-15T01:02:44;43.27;;;30.43;;
34134;SDS011;20410;55.578;12.968;2022-11-15T01:05:10;45.90;;;31.07;;
34134;SDS011;20410;55.578;12.968;2022-11-15T01:07:35;43.90;;;31.10;;
34134;SDS011;20410;55.578;12.968;2022-11-15T01:10:01;45.10;;;31.07;;
34134;SDS011;20410;55.578;12.968;2022-11-15T01:12:26;43.83;;;31.43;;
34134;SDS011;20410;55.578;12.968;2022-11-15T01:14:52;43.80;;;30.53;;
34134;SDS011;20410;55.578;12.968;2022-11-15T01:17:18;43.67;;;30.87;;
34134;SDS011;20410;55.578;12.968;2022-11-15T01:19:43;42.40;;;29.47;;
34134;SDS011;20410;55.578;12.968;2022-11-15T01:22:09;41.70;;;30.07;;
34134;SDS011;20410;55.578;12.968;2022-11-15T01:24:34;42.07;;;29.97;;
34134;SDS011;20410;55.578;12.968;2022-11-15T01:27:00;43.73;;;29.53;;
34134;SDS011;20410;55.578;12.968;2022-11-15T01:29:25;46.13;;;31.17;;
34134;SDS011;20410;55.578;12.968;2022-11-15T01:31:52;42.13;;;30.47;;
34134;SDS011;20410;55.578;12.968;2022-11-15T01:34:18;42.17;;;29.77;;
34134;SDS011;20410;55.578;12.968;2022-11-15T01:36:44;43.10;;;30.33;;
34134;SDS011;20410;55.578;12.968;2022-11-15T01:39:09;42.90;;;30.03;;
34134;SDS011;20410;55.578;12.968;2022-11-15T01:41:35;44.43;;;30.33;;
34134;SDS011;20410;55.578;12.968;2022-11-15T01:47:09;39.13;;;28.80;;
34134;SDS011;20410;55.578;12.968;2022-11-15T01:49:59;42.30;;;30.87;;
34134;SDS011;20410;55.578;12.968;2022-11-15T01:52:32;47.73;;;32.63;;
34134;SDS011;20410;55.578;12.968;2022-11-15T01:55:07;45.97;;;31.60;;
34134;SDS011;20410;55.578;12.968;2022-11-15T01:57:39;45.67;;;32.40;;
34134;SDS011;20410;55.578;12.968;2022-11-15T02:00:07;43.03;;;31.30;;
34134;SDS011;20410;55.578;12.968;2022-11-15T02:02:33;44.90;;;32.27;;
34134;SDS011;20410;55.578;12.968;2022-11-15T02:05:00;44.17;;;30.93;;
34134;SDS011;20410;55.578;12.968;2022-11-15T02:07:26;46.20;;;32.07;;
34134;SDS011;20410;55.578;12.968;2022-11-15T02:09:53;43.60;;;32.50;;
34134;SDS011;20410;55.578;12.968;2022-11-15T02:12:20;40.50;;;30.27;;
34134;SDS011;20410;55.578;12.968;2022-11-15T02:14:48;45.60;;;32.80;;
34134;SDS011;20410;55.578;12.968;2022-11-15T02:17:30;45.43;;;30.43;;
34134;SDS011;20410;55.578;12.968;2022-11-15T02:23:09;47.90;;;32.30;;
34134;SDS011;20410;55.578;12.968;2022-11-15T02:36:00;43.90;;;32.00;;
34134;SDS011;20410;55.578;12.968;2022-11-15T02:38:35;45.17;;;32.77;;
34134;SDS011;20410;55.578;12.968;2022-11-15T02:43:55;43.03;;;31.53;;
34134;SDS011;20410;55.578;12.968;2022-11-15T02:46:37;44.20;;;31.23;;
34134;SDS011;20410;55.578;12.968;2022-11-15T02:49:26;40.27;;;28.93;;
34134;SDS011;20410;55.578;12.968;2022-11-15T02:51:54;40.93;;;29.60;;
34134;SDS011;20410;55.578;12.968;2022-11-15T02:54:25;38.70;;;28.90;;
34134;SDS011;20410;55.578;12.968;2022-11-15T02:56:55;39.87;;;29.57;;
34134;SDS011;20410;55.578;12.968;2022-11-15T03:07:30;40.00;;;30.23;;
34134;SDS011;20410;55.578;12.968;2022-11-15T03:10:20;41.07;;;31.10;;
34134;SDS011;20410;55.578;12.968;2022-11-15T03:13:08;43.80;;;31.77;;
34134;SDS011;20410;55.578;12.968;2022-11-15T03:16:08;39.80;;;29.63;;
34134;SDS011;20410;55.578;12.968;2022-11-15T03:18:43;42.23;;;31.80;;
34134;SDS011;20410;55.578;12.968;2022-11-15T03:21:20;43.60;;;31.20;;
34134;SDS011;20410;55.578;12.968;2022-11-15T03:23:47;47.00;;;32.90;;
34134;SDS011;20410;55.578;12.968;2022-11-15T03:26:15;43.53;;;32.37;;
34134;SDS011;20410;55.578;12.968;2022-11-15T03:28:45;45.10;;;32.07;;
34134;SDS011;20410;55.578;12.968;2022-11-15T03:31:23;44.10;;;32.50;;
34134;SDS011;20410;55.578;12.968;2022-11-15T03:34:19;42.10;;;30.73;;
34134;SDS011;20410;55.578;12.968;2022-11-15T03:36:49;43.77;;;32.77;;
34134;SDS011;20410;55.578;12.968;2022-11-15T03:39:17;46.70;;;32.87;;
34134;SDS011;20410;55.578;12.968;2022-11-15T03:44:14;46.80;;;33.37;;
34134;SDS011;20410;55.578;12.968;2022-11-15T03:47:02;45.23;;;33.57;;
34134;SDS011;20410;55.578;12.968;2022-11-15T03:49:39;49.17;;;34.37;;
34134;SDS011;20410;55.578;12.968;2022-11-15T03:52:09;49.40;;;34.93;;
34134;SDS011;20410;55.578;12.968;2022-11-15T03:54:36;48.83;;;34.50;;
34134;SDS011;20410;55.578;12.968;2022-11-15T03:57:01;43.37;;;31.93;;
34134;SDS011;20410;55.578;12.968;2022-11-15T03:59:27;46.50;;;33.37;;
34134;SDS011;20410;55.578;12.968;2022-11-15T04:01:53;45.30;;;33.47;;
34134;SDS011;20410;55.578;12.968;2022-11-15T04:04:18;48.17;;;35.00;;
34134;SDS011;20410;55.578;12.968;2022-11-15T04:06:44;46.27;;;33.63;;
34134;SDS011;20410;55.578;12.968;2022-11-15T04:09:09;46.80;;;33.47;;
34134;SDS011;20410;55.578;12.968;2022-11-15T04:11:35;47.43;;;34.57;;
34134;SDS011;20410;55.578;12.968;2022-11-15T04:14:01;46.70;;;34.10;;
34134;SDS011;20410;55.578;12.968;2022-11-15T04:16:26;43.00;;;32.10;;
34134;SDS011;20410;55.578;12.968;2022-11-15T04:18:52;48.23;;;34.60;;
34134;SDS011;20410;55.578;12.968;2022-11-15T04:21:36;46.30;;;34.53;;
34134;SDS011;20410;55.578;12.968;2022-11-15T04:24:20;48.13;;;34.17;;
34134;SDS011;20410;55.578;12.968;2022-11-15T04:26:45;46.63;;;34.37;;
34134;SDS011;20410;55.578;12.968;2022-11-15T04:29:11;48.43;;;35.13;;
34134;SDS011;20410;55.578;12.968;2022-11-15T04:32:03;48.73;;;34.07;;
34134;SDS011;20410;55.578;12.968;2022-11-15T04:34:30;47.63;;;35.60;;
34134;SDS011;20410;55.578;12.968;2022-11-15T04:36:56;41.90;;;32.53;;
34134;SDS011;20410;55.578;12.968;2022-11-15T04:39:37;41.97;;;31.90;;
34134;SDS011;20410;55.578;12.968;2022-11-15T04:42:03;42.87;;;33.30;;
34134;SDS011;20410;55.578;12.968;2022-11-15T04:44:28;44.97;;;33.07;;
34134;SDS011;20410;55.578;12.968;2022-11-15T04:46:54;45.10;;;33.80;;
34134;SDS011;20410;55.578;12.968;2022-11-15T04:49:19;44.83;;;34.97;;
34134;SDS011;20410;55.578;12.968;2022-11-15T04:51:45;42.90;;;32.83;;
34134;SDS011;20410;55.578;12.968;2022-11-15T04:54:11;42.83;;;31.80;;
34134;SDS011;20410;55.578;12.968;2022-11-15T04:56:37;46.47;;;34.93;;
34134;SDS011;20410;55.578;12.968;2022-11-15T04:59:02;42.47;;;31.83;;
34134;SDS011;20410;55.578;12.968;2022-11-15T05:01:28;42.50;;;32.30;;
34134;SDS011;20410;55.578;12.968;2022-11-15T05:03:53;42.87;;;33.40;;
34134;SDS011;20410;55.578;12.968;2022-11-15T05:06:37;43.10;;;32.87;;
34134;SDS011;20410;55.578;12.968;2022-11-15T05:09:03;44.67;;;35.30;;
34134;SDS011;20410;55.578;12.968;2022-11-15T05:11:29;41.90;;;32.57;;
34134;SDS011;20410;55.578;12.968;2022-11-15T05:13:54;42.30;;;33.63;;
34134;SDS011;20410;55.578;12.968;2022-11-15T05:16:20;44.13;;;33.27;;
34134;SDS011;20410;55.578;12.968;2022-11-15T05:18:46;42.20;;;33.67;;
34134;SDS011;20410;55.578;12.968;2022-11-15T05:21:13;43.80;;;33.73;;
34134;SDS011;20410;55.578;12.968;2022-11-15T05:23:40;43.17;;;32.80;;
34134;SDS011;20410;55.578;12.968;2022-11-15T05:26:06;42.30;;;34.07;;
34134;SDS011;20410;55.578;12.968;2022-11-15T05:28:32;44.23;;;34.63;;
34134;SDS011;20410;55.578;12.968;2022-11-15T05:31:03;47.57;;;34.93;;
34134;SDS011;20410;55.578;12.968;2022-11-15T05:33:30;45.23;;;34.03;;
34134;SDS011;20410;55.578;12.968;2022-11-15T05:38:52;49.40;;;37.27;;
34134;SDS011;20410;55.578;12.968;2022-11-15T05:41:18;45.73;;;35.73;;
34134;SDS011;20410;55.578;12.968;2022-11-15T05:43:50;45.17;;;34.53;;
34134;SDS011;20410;55.578;12.968;2022-11-15T05:46:16;47.17;;;36.80;;
34134;SDS011;20410;55.578;12.968;2022-11-15T05:48:43;48.77;;;36.93;;
34134;SDS011;20410;55.578;12.968;2022-11-15T05:51:11;45.67;;;35.13;;
34134;SDS011;20410;55.578;12.968;2022-11-15T05:53:39;46.77;;;36.40;;
34134;SDS011;20410;55.578;12.968;2022-11-15T05:56:05;45.77;;;35.90;;
34134;SDS011;20410;55.578;12.968;2022-11-15T05:58:34;46.07;;;36.37;;
34134;SDS011;20410;55.578;12.968;2022-11-15T06:01:01;46.03;;;36.47;;
34134;SDS011;20410;55.578;12.968;2022-11-15T06:03:27;49.50;;;36.63;;
34134;SDS011;20410;55.578;12.968;2022-11-15T06:05:53;47.73;;;35.83;;
34134;SDS011;20410;55.578;12.968;2022-11-15T06:08:19;41.47;;;34.07;;
34134;SDS011;20410;55.578;12.968;2022-11-15T06:10:44;49.20;;;37.27;;
34134;SDS011;20410;55.578;12.968;2022-11-15T06:13:10;45.40;;;36.97;;
34134;SDS011;20410;55.578;12.968;2022-11-15T06:15:35;44.97;;;36.57;;
34134;SDS011;20410;55.578;12.968;2022-11-15T06:18:01;44.90;;;36.07;;
34134;SDS011;20410;55.578;12.968;2022-11-15T06:20:27;46.67;;;36.77;;
34134;SDS011;20410;55.578;12.968;2022-11-15T06:22:58;46.83;;;36.13;;
34134;SDS011;20410;55.578;12.968;2022-11-15T06:25:27;45.53;;;36.53;;
34134;SDS011;20410;55.578;12.968;2022-11-15T06:27:54;47.23;;;37.20;;
34134;SDS011;20410;55.578;12.968;2022-11-15T06:30:21;50.40;;;39.20;;
34134;SDS011;20410;55.578;12.968;2022-11-15T06:32:47;47.87;;;37.27;;
34134;SDS011;20410;55.578;12.968;2022-11-15T06:35:13;47.07;;;35.93;;
34134;SDS011;20410;55.578;12.968;2022-11-15T06:37:39;48.33;;;38.60;;
34134;SDS011;20410;55.578;12.968;2022-11-15T06:40:05;48.07;;;38.30;;
34134;SDS011;20410;55.578;12.968;2022-11-15T06:42:31;47.80;;;37.60;;
34134;SDS011;20410;55.578;12.968;2022-11-15T06:44:57;47.00;;;36.83;;
34134;SDS011;20410;55.578;12.968;2022-11-15T06:47:22;49.77;;;38.63;;
34134;SDS011;20410;55.578;12.968;2022-11-15T06:49:48;45.83;;;36.00;;
34134;SDS011;20410;55.578;12.968;2022-11-15T06:52:13;51.53;;;36.80;;
34134;SDS011;20410;55.578;12.968;2022-11-15T06:54:39;46.77;;;36.57;;
34134;SDS011;20410;55.578;12.968;2022-11-15T06:57:05;51.27;;;37.10;;
34134;SDS011;20410;55.578;12.968;2022-11-15T06:59:30;51.50;;;38.17;;
34134;SDS011;20410;55.578;12.968;2022-11-15T07:01:56;52.00;;;38.13;;
34134;SDS011;20410;55.578;12.968;2022-11-15T07:04:22;47.40;;;36.50;;
34134;SDS011;20410;55.578;12.968;2022-11-15T07:06:47;48.53;;;38.40;;
34134;SDS011;20410;55.578;12.968;2022-11-15T07:09:14;46.87;;;37.30;;
34134;SDS011;20410;55.578;12.968;2022-11-15T07:11:40;52.13;;;38.53;;
34134;SDS011;20410;55.578;12.968;2022-11-15T07:14:05;48.57;;;37.77;;
34134;SDS011;20410;55.578;12.968;2022-11-15T07:16:31;49.03;;;37.93;;
34134;SDS011;20410;55.578;12.968;2022-11-15T07:18:56;51.87;;;39.20;;
34134;SDS011;20410;55.578;12.968;2022-11-15T07:21:22;48.27;;;38.37;;
34134;SDS011;20410;55.578;12.968;2022-11-15T07:23:48;50.33;;;37.77;;
34134;SDS011;20410;55.578;12.968;2022-11-15T07:26:13;51.63;;;38.33;;
34134;SDS011;20410;55.578;12.968;2022-11-15T07:28:39;53.83;;;40.30;;
34134;SDS011;20410;55.578;12.968;2022-11-15T07:31:05;55.07;;;39.30;;
34134;SDS011;20410;55.578;12.968;2022-11-15T07:33:32;48.80;;;37.77;;
34134;SDS011;20410;55.578;12.968;2022-11-15T07:35:59;54.97;;;38.73;;
34134;SDS011;20410;55.578;12.968;2022-11-15T07:38:26;49.63;;;39.00;;
34134;SDS011;20410;55.578;12.968;2022-11-15T07:40:58;50.03;;;38.83;;
34134;SDS011;20410;55.578;12.968;2022-11-15T07:43:25;50.37;;;39.17;;
34134;SDS011;20410;55.578;12.968;2022-11-15T07:45:54;51.00;;;39.37;;
34134;SDS011;20410;55.578;12.968;2022-11-15T07:48:20;52.30;;;38.87;;
34134;SDS011;20410;55.578;12.968;2022-11-15T07:50:46;49.73;;;38.87;;
34134;SDS011;20410;55.578;12.968;2022-11-15T07:53:12;52.40;;;39.00;;
34134;SDS011;20410;55.578;12.968;2022-11-15T07:55:39;50.23;;;39.43;;
34134;SDS011;20410;55.578;12.968;2022-11-15T07:58:06;50.53;;;38.67;;
34134;SDS011;20410;55.578;12.968;2022-11-15T08:00:33;48.53;;;36.43;;
34134;SDS011;20410;55.578;12.968;2022-11-15T08:05:35;48.53;;;38.10;;
34134;SDS011;20410;55.578;12.968;2022-11-15T08:08:02;49.03;;;37.77;;
34134;SDS011;20410;55.578;12.968;2022-11-15T08:10:28;48.43;;;37.57;;
34134;SDS011;20410;55.578;12.968;2022-11-15T08:13:01;49.10;;;37.77;;
34134;SDS011;20410;55.578;12.968;2022-11-15T08:15:31;49.23;;;36.50;;
34134;SDS011;20410;55.578;12.968;2022-11-15T08:17:58;46.93;;;35.83;;
34134;SDS011;20410;55.578;12.968;2022-11-15T08:20:29;44.90;;;36.10;;
34134;SDS011;20410;55.578;12.968;2022-11-15T08:22:59;44.23;;;34.57;;
34134;SDS011;20410;55.578;12.968;2022-11-15T08:25:25;44.67;;;35.77;;
34134;SDS011;20410;55.578;12.968;2022-11-15T08:27:53;49.27;;;36.67;;
34134;SDS011;20410;55.578;12.968;2022-11-15T08:30:19;43.47;;;35.67;;
34134;SDS011;20410;55.578;12.968;2022-11-15T08:32:45;43.47;;;34.33;;
34134;SDS011;20410;55.578;12.968;2022-11-15T08:35:12;43.50;;;34.87;;
34134;SDS011;20410;55.578;12.968;2022-11-15T08:37:37;46.60;;;35.60;;
34134;SDS011;20410;55.578;12.968;2022-11-15T08:40:04;42.00;;;34.37;;
34134;SDS011;20410;55.578;12.968;2022-11-15T08:42:30;45.03;;;34.93;;
34134;SDS011;20410;55.578;12.968;2022-11-15T08:44:55;45.37;;;34.93;;
34134;SDS011;20410;55.578;12.968;2022-11-15T08:47:21;45.73;;;34.63;;
34134;SDS011;20410;55.578;12.968;2022-11-15T08:49:47;45.63;;;34.43;;
34134;SDS011;20410;55.578;12.968;2022-11-15T08:52:13;45.73;;;36.37;;
34134;SDS011;20410;55.578;12.968;2022-11-15T08:54:39;46.83;;;36.10;;
34134;SDS011;20410;55.578;12.968;2022-11-15T08:57:05;49.20;;;36.80;;
34134;SDS011;20410;55.578;12.968;2022-11-15T08:59:31;49.90;;;37.40;;
34134;SDS011;20410;55.578;12.968;2022-11-15T09:01:57;47.80;;;36.70;;
34134;SDS011;20410;55.578;12.968;2022-11-15T09:04:22;50.33;;;37.50;;
34134;SDS011;20410;55.578;12.968;2022-11-15T09:06:48;51.20;;;38.17;;
34134;SDS011;20410;55.578;12.968;2022-11-15T09:09:13;45.37;;;35.10;;
34134;SDS011;20410;55.578;12.968;2022-11-15T09:11:39;48.93;;;36.23;;
34134;SDS011;20410;55.578;12.968;2022-11-15T09:14:05;48.07;;;36.70;;
34134;SDS011;20410;55.578;12.968;2022-11-15T09:16:31;48.90;;;37.57;;
34134;SDS011;20410;55.578;12.968;2022-11-15T09:18:56;48.57;;;36.37;;
34134;SDS011;20410;55.578;12.968;2022-11-15T09:21:22;46.13;;;35.00;;
34134;SDS011;20410;55.578;12.968;2022-11-15T09:23:51;45.67;;;34.80;;
34134;SDS011;20410;55.578;12.968;2022-11-15T09:26:17;48.30;;;36.77;;
34134;SDS011;20410;55.578;12.968;2022-11-15T09:28:43;49.63;;;37.37;;
34134;SDS011;20410;55.578;12.968;2022-11-15T09:31:08;46.07;;;34.87;;
34134;SDS011;20410;55.578;12.968;2022-11-15T09:33:35;49.47;;;36.40;;
34134;SDS011;20410;55.578;12.968;2022-11-15T09:36:02;49.77;;;36.17;;
34134;SDS011;20410;55.578;12.968;2022-11-15T09:38:30;45.37;;;36.20;;
34134;SDS011;20410;55.578;12.968;2022-11-15T09:40:59;48.63;;;36.50;;
34134;SDS011;20410;55.578;12.968;2022-11-15T09:49:30;49.63;;;37.43;;
34134;SDS011;20410;55.578;12.968;2022-11-15T09:51:56;50.23;;;38.37;;
34134;SDS011;20410;55.578;12.968;2022-11-15T09:54:25;48.27;;;37.03;;
34134;SDS011;20410;55.578;12.968;2022-11-15T09:56:52;50.93;;;38.90;;
34134;SDS011;20410;55.578;12.968;2022-11-15T10:05:07;49.73;;;35.33;;
34134;SDS011;20410;55.578;12.968;2022-11-15T10:07:40;48.40;;;34.93;;
34134;SDS011;20410;55.578;12.968;2022-11-15T10:11:05;44.60;;;33.97;;
34134;SDS011;20410;55.578;12.968;2022-11-15T10:13:25;45.17;;;34.53;;
34134;SDS011;20410;55.578;12.968;2022-11-15T10:15:57;44.40;;;33.70;;
34134;SDS011;20410;55.578;12.968;2022-11-15T10:21:51;39.27;;;32.03;;
34134;SDS011;20410;55.578;12.968;2022-11-15T10:24:27;49.17;;;34.63;;
34134;SDS011;20410;55.578;12.968;2022-11-15T10:26:55;44.43;;;33.90;;
34134;SDS011;20410;55.578;12.968;2022-11-15T10:29:22;46.77;;;34.93;;
34134;SDS011;20410;55.578;12.968;2022-11-15T10:31:48;47.60;;;36.53;;
34134;SDS011;20410;55.578;12.968;2022-11-15T10:34:19;47.00;;;35.40;;
34134;SDS011;20410;55.578;12.968;2022-11-15T10:36:53;47.93;;;36.10;;
34134;SDS011;20410;55.578;12.968;2022-11-15T10:39:21;48.77;;;35.93;;
34134;SDS011;20410;55.578;12.968;2022-11-15T10:41:46;46.37;;;35.67;;
34134;SDS011;20410;55.578;12.968;2022-11-15T10:49:29;48.00;;;36.80;;
34134;SDS011;20410;55.578;12.968;2022-11-15T10:52:00;49.73;;;36.53;;
34134;SDS011;20410;55.578;12.968;2022-11-15T10:57:35;48.73;;;37.37;;
34134;SDS011;20410;55.578;12.968;2022-11-15T11:00:04;52.63;;;38.10;;
34134;SDS011;20410;55.578;12.968;2022-11-15T11:02:31;46.63;;;35.70;;
34134;SDS011;20410;55.578;12.968;2022-11-15T11:05:30;50.67;;;37.83;;
34134;SDS011;20410;55.578;12.968;2022-11-15T11:07:59;53.13;;;38.60;;
34134;SDS011;20410;55.578;12.968;2022-11-15T11:10:34;46.13;;;36.73;;
34134;SDS011;20410;55.578;12.968;2022-11-15T11:13:13;51.73;;;38.40;;
34134;SDS011;20410;55.578;12.968;2022-11-15T11:15:40;51.47;;;38.90;;
34134;SDS011;20410;55.578;12.968;2022-11-15T11:18:13;51.77;;;37.13;;
34134;SDS011;20410;55.578;12.968;2022-11-15T11:20:50;54.07;;;38.10;;
34134;SDS011;20410;55.578;12.968;2022-11-15T11:29:24;45.10;;;33.07;;
34134;SDS011;20410;55.578;12.968;2022-11-15T11:32:27;44.23;;;32.37;;
34134;SDS011;20410;55.578;12.968;2022-11-15T11:35:06;47.77;;;32.67;;
34134;SDS011;20410;55.578;12.968;2022-11-15T11:40:28;41.17;;;30.10;;
34134;SDS011;20410;55.578;12.968;2022-11-15T11:43:04;44.20;;;31.67;;
34134;SDS011;20410;55.578;12.968;2022-11-15T11:50:36;44.00;;;31.00;;
34134;SDS011;20410;55.578;12.968;2022-11-15T11:53:05;44.53;;;31.47;;
34134;SDS011;20410;55.578;12.968;2022-11-15T12:00:59;41.03;;;29.83;;
34134;SDS011;20410;55.578;12.968;2022-11-15T12:03:48;42.57;;;30.40;;
34134;SDS011;20410;55.578;12.968;2022-11-15T12:06:24;39.17;;;28.43;;
34134;SDS011;20410;55.578;12.968;2022-11-15T12:12:05;42.43;;;28.73;;
34134;SDS011;20410;55.578;12.968;2022-11-15T12:17:33;41.60;;;28.30;;
34134;SDS011;20410;55.578;12.968;2022-11-15T12:20:00;38.60;;;26.87;;
34134;SDS011;20410;55.578;12.968;2022-11-15T12:22:40;40.60;;;28.27;;
34134;SDS011;20410;55.578;12.968;2022-11-15T12:25:30;39.23;;;28.83;;
34134;SDS011;20410;55.578;12.968;2022-11-15T12:27:59;43.50;;;26.10;;
34134;SDS011;20410;55.578;12.968;2022-11-15T12:36:04;36.87;;;27.37;;
34134;SDS011;20410;55.578;12.968;2022-11-15T12:38:54;38.30;;;26.30;;
34134;SDS011;20410;55.578;12.968;2022-11-15T12:41:21;36.93;;;26.73;;
34134;SDS011;20410;55.578;12.968;2022-11-15T12:43:48;38.03;;;25.97;;
34134;SDS011;20410;55.578;12.968;2022-11-15T12:49:02;41.57;;;26.27;;
34134;SDS011;20410;55.578;12.968;2022-11-15T12:56:57;38.17;;;26.73;;
34134;SDS011;20410;55.578;12.968;2022-11-15T13:02:30;39.57;;;28.03;;
34134;SDS011;20410;55.578;12.968;2022-11-15T13:22:43;40.27;;;27.57;;
34134;SDS011;20410;55.578;12.968;2022-11-15T13:31:14;40.57;;;27.50;;
34134;SDS011;20410;55.578;12.968;2022-11-15T13:34:23;39.03;;;26.37;;
34134;SDS011;20410;55.578;12.968;2022-11-15T13:36:52;42.13;;;27.60;;
34134;SDS011;20410;55.578;12.968;2022-11-15T13:41:52;44.13;;;26.63;;
34134;SDS011;20410;55.578;12.968;2022-11-15T13:44:19;42.93;;;27.87;;
34134;SDS011;20410;55.578;12.968;2022-11-15T13:46:46;41.10;;;27.57;;
34134;SDS011;20410;55.578;12.968;2022-11-15T13:49:11;39.80;;;25.47;;
34134;SDS011;20410;55.578;12.968;2022-11-15T13:56:37;37.03;;;24.20;;
34134;SDS011;20410;55.578;12.968;2022-11-15T13:59:28;38.30;;;24.70;;
34134;SDS011;20410;55.578;12.968;2022-11-15T14:02:11;34.93;;;23.43;;
34134;SDS011;20410;55.578;12.968;2022-11-15T14:04:53;34.77;;;22.93;;
34134;SDS011;20410;55.578;12.968;2022-11-15T14:07:23;33.60;;;22.63;;
34134;SDS011;20410;55.578;12.968;2022-11-15T14:09:51;33.40;;;22.60;;
34134;SDS011;20410;55.578;12.968;2022-11-15T14:13:26;31.70;;;21.10;;
34134;SDS011;20410;55.578;12.968;2022-11-15T14:15:26;32.10;;;21.10;;
34134;SDS011;20410;55.578;12.968;2022-11-15T14:17:57;28.27;;;19.27;;
34134;SDS011;20410;55.578;12.968;2022-11-15T14:20:33;31.93;;;21.30;;
34134;SDS011;20410;55.578;12.968;2022-11-15T14:23:00;28.03;;;18.93;;
34134;SDS011;20410;55.578;12.968;2022-11-15T14:25:28;25.83;;;17.87;;
34134;SDS011;20410;55.578;12.968;2022-11-15T14:28:14;29.60;;;19.23;;
34134;SDS011;20410;55.578;12.968;2022-11-15T14:30:53;27.00;;;18.00;;
34134;SDS011;20410;55.578;12.968;2022-11-15T14:33:36;26.30;;;18.90;;
34134;SDS011;20410;55.578;12.968;2022-11-15T14:36:23;27.63;;;18.00;;
34134;SDS011;20410;55.578;12.968;2022-11-15T14:38:48;23.90;;;17.33;;
34134;SDS011;20410;55.578;12.968;2022-11-15T14:41:24;23.37;;;18.03;;
34134;SDS011;20410;55.578;12.968;2022-11-15T14:43:51;23.43;;;17.03;;
34134;SDS011;20410;55.578;12.968;2022-11-15T14:46:18;23.77;;;17.07;;
34134;SDS011;20410;55.578;12.968;2022-11-15T14:48:43;24.30;;;17.97;;
34134;SDS011;20410;55.578;12.968;2022-11-15T14:51:12;22.27;;;16.90;;
34134;SDS011;20410;55.578;12.968;2022-11-15T14:53:40;23.10;;;16.53;;
34134;SDS011;20410;55.578;12.968;2022-11-15T14:56:06;23.07;;;17.23;;
34134;SDS011;20410;55.578;12.968;2022-11-15T14:58:32;21.70;;;16.83;;
34134;SDS011;20410;55.578;12.968;2022-11-15T15:00:58;23.20;;;17.23;;
34134;SDS011;20410;55.578;12.968;2022-11-15T15:03:23;24.13;;;16.37;;
34134;SDS011;20410;55.578;12.968;2022-11-15T15:05:49;24.23;;;17.40;;
34134;SDS011;20410;55.578;12.968;2022-11-15T15:08:14;20.37;;;16.23;;
34134;SDS011;20410;55.578;12.968;2022-11-15T15:10:41;23.93;;;16.63;;
34134;SDS011;20410;55.578;12.968;2022-11-15T15:13:16;21.27;;;16.13;;
34134;SDS011;20410;55.578;12.968;2022-11-15T15:15:46;21.73;;;16.47;;
34134;SDS011;20410;55.578;12.968;2022-11-15T15:18:13;23.83;;;16.50;;
34134;SDS011;20410;55.578;12.968;2022-11-15T15:20:39;24.27;;;17.20;;
34134;SDS011;20410;55.578;12.968;2022-11-15T15:23:18;21.50;;;16.50;;
34134;SDS011;20410;55.578;12.968;2022-11-15T15:25:45;23.60;;;16.90;;
34134;SDS011;20410;55.578;12.968;2022-11-15T15:28:12;23.93;;;16.93;;
34134;SDS011;20410;55.578;12.968;2022-11-15T15:30:38;21.70;;;16.27;;
34134;SDS011;20410;55.578;12.968;2022-11-15T15:33:04;21.27;;;16.33;;
34134;SDS011;20410;55.578;12.968;2022-11-15T15:35:30;25.60;;;16.73;;
34134;SDS011;20410;55.578;12.968;2022-11-15T15:37:58;21.07;;;15.37;;
34134;SDS011;20410;55.578;12.968;2022-11-15T15:40:24;21.83;;;16.80;;
34134;SDS011;20410;55.578;12.968;2022-11-15T15:42:52;24.23;;;17.40;;
34134;SDS011;20410;55.578;12.968;2022-11-15T15:45:18;24.03;;;16.63;;
34134;SDS011;20410;55.578;12.968;2022-11-15T15:47:43;22.03;;;16.90;;
34134;SDS011;20410;55.578;12.968;2022-11-15T15:53:14;21.93;;;16.60;;
34134;SDS011;20410;55.578;12.968;2022-11-15T15:55:39;20.77;;;15.80;;
34134;SDS011;20410;55.578;12.968;2022-11-15T15:58:05;23.90;;;17.93;;
34134;SDS011;20410;55.578;12.968;2022-11-15T16:00:32;20.40;;;16.40;;
34134;SDS011;20410;55.578;12.968;2022-11-15T16:02:58;19.63;;;16.43;;
34134;SDS011;20410;55.578;12.968;2022-11-15T16:05:24;21.90;;;16.87;;
34134;SDS011;20410;55.578;12.968;2022-11-15T16:07:50;23.97;;;16.73;;
34134;SDS011;20410;55.578;12.968;2022-11-15T16:12:41;22.00;;;16.90;;
34134;SDS011;20410;55.578;12.968;2022-11-15T16:15:07;22.93;;;16.53;;
34134;SDS011;20410;55.578;12.968;2022-11-15T16:17:34;19.67;;;15.83;;
34134;SDS011;20410;55.578;12.968;2022-11-15T16:20:03;23.00;;;16.73;;
34134;SDS011;20410;55.578;12.968;2022-11-15T16:22:29;22.80;;;16.43;;
34134;SDS011;20410;55.578;12.968;2022-11-15T16:24:55;23.60;;;17.07;;
34134;SDS011;20410;55.578;12.968;2022-11-15T16:27:20;21.50;;;16.23;;
34134;SDS011;20410;55.578;12.968;2022-11-15T16:29:47;22.97;;;16.00;;
34134;SDS011;20410;55.578;12.968;2022-11-15T16:32:13;19.70;;;15.57;;
34134;SDS011;20410;55.578;12.968;2022-11-15T16:34:39;21.70;;;15.50;;
34134;SDS011;20410;55.578;12.968;2022-11-15T16:37:05;21.70;;;16.03;;
34134;SDS011;20410;55.578;12.968;2022-11-15T16:39:33;19.37;;;15.03;;